sensor_id;sensor_type;location;lat;lon;timestamp;P1;durP1;ratioP1;P2;durP2;ratioP2
70487;SDS011;57976;48.174;16.370;2023-08-30T00:01:54;3.30;;;1.20;;
70487;SDS011;57976;48.174;16.370;2023-08-30T00:03:57;4.30;;;1.50;;
70487;SDS011;57976;48.174;16.370;2023-08-30T00:06:02;3.90;;;1.40;;
70487;SDS011;57976;48.174;16.370;2023-08-30T00:08:05;4.00;;;1.10;;
70487;SDS011;57976;48.174;16.370;2023-08-30T00:10:12;4.20;;;1.30;;
70487;SDS011;57976;48.174;16.370;2023-08-30T00:12:15;4.80;;;1.30;;
70487;SDS011;57976;48.174;16.370;2023-08-30T00:14:17;3.80;;;1.30;;
70487;SDS011;57976;48.174;16.370;2023-08-30T00:16:20;3.90;;;1.30;;
70487;SDS011;57976;48.174;16.370;2023-08-30T00:18:23;3.70;;;1.30;;
70487;SDS011;57976;48.174;16.370;2023-08-30T00:20:25;3.20;;;1.30;;
70487;SDS011;57976;48.174;16.370;2023-08-30T00:22:28;4.50;;;1.10;;
70487;SDS011;57976;48.174;16.370;2023-08-30T00:24:31;3.70;;;1.30;;
70487;SDS011;57976;48.174;16.370;2023-08-30T00:26:33;3.40;;;1.20;;
70487;SDS011;57976;48.174;16.370;2023-08-30T00:28:38;4.80;;;1.40;;
70487;SDS011;57976;48.174;16.370;2023-08-30T00:30:40;3.70;;;1.50;;
70487;SDS011;57976;48.174;16.370;2023-08-30T00:32:43;3.80;;;1.50;;
70487;SDS011;57976;48.174;16.370;2023-08-30T00:34:46;3.50;;;1.20;;
70487;SDS011;57976;48.174;16.370;2023-08-30T00:36:51;5.00;;;1.40;;
70487;SDS011;57976;48.174;16.370;2023-08-30T00:38:53;3.50;;;1.30;;
70487;SDS011;57976;48.174;16.370;2023-08-30T00:40:56;4.40;;;1.40;;
70487;SDS011;57976;48.174;16.370;2023-08-30T00:42:59;3.80;;;1.40;;
70487;SDS011;57976;48.174;16.370;2023-08-30T00:45:02;4.00;;;1.30;;
70487;SDS011;57976;48.174;16.370;2023-08-30T00:47:07;3.30;;;1.20;;
70487;SDS011;57976;48.174;16.370;2023-08-30T00:49:11;3.50;;;1.30;;
70487;SDS011;57976;48.174;16.370;2023-08-30T00:51:13;3.70;;;1.40;;
70487;SDS011;57976;48.174;16.370;2023-08-30T00:53:16;3.20;;;1.30;;
70487;SDS011;57976;48.174;16.370;2023-08-30T00:55:19;4.10;;;1.40;;
70487;SDS011;57976;48.174;16.370;2023-08-30T00:57:22;3.60;;;1.30;;
70487;SDS011;57976;48.174;16.370;2023-08-30T00:59:25;4.50;;;1.50;;
70487;SDS011;57976;48.174;16.370;2023-08-30T01:04:06;3.50;;;1.30;;
70487;SDS011;57976;48.174;16.370;2023-08-30T01:06:11;3.80;;;1.30;;
70487;SDS011;57976;48.174;16.370;2023-08-30T01:08:16;3.60;;;1.30;;
70487;SDS011;57976;48.174;16.370;2023-08-30T01:10:24;3.20;;;1.10;;
70487;SDS011;57976;48.174;16.370;2023-08-30T01:12:39;3.60;;;1.30;;
70487;SDS011;57976;48.174;16.370;2023-08-30T01:14:49;4.90;;;1.20;;
70487;SDS011;57976;48.174;16.370;2023-08-30T01:17:01;3.70;;;1.20;;
70487;SDS011;57976;48.174;16.370;2023-08-30T01:19:13;3.30;;;1.20;;
70487;SDS011;57976;48.174;16.370;2023-08-30T01:21:32;3.30;;;1.10;;
70487;SDS011;57976;48.174;16.370;2023-08-30T01:23:54;3.50;;;1.30;;
70487;SDS011;57976;48.174;16.370;2023-08-30T01:26:04;3.70;;;1.20;;
70487;SDS011;57976;48.174;16.370;2023-08-30T01:28:18;3.60;;;1.30;;
70487;SDS011;57976;48.174;16.370;2023-08-30T01:30:30;4.50;;;1.40;;
70487;SDS011;57976;48.174;16.370;2023-08-30T01:32:36;3.50;;;1.40;;
70487;SDS011;57976;48.174;16.370;2023-08-30T01:34:42;3.20;;;1.10;;
70487;SDS011;57976;48.174;16.370;2023-08-30T01:36:48;3.40;;;1.20;;
70487;SDS011;57976;48.174;16.370;2023-08-30T01:38:54;3.30;;;1.20;;
70487;SDS011;57976;48.174;16.370;2023-08-30T01:41:00;3.40;;;1.30;;
70487;SDS011;57976;48.174;16.370;2023-08-30T01:43:07;3.50;;;1.20;;
70487;SDS011;57976;48.174;16.370;2023-08-30T01:45:13;3.80;;;1.40;;
70487;SDS011;57976;48.174;16.370;2023-08-30T01:47:20;3.50;;;1.20;;
70487;SDS011;57976;48.174;16.370;2023-08-30T01:49:28;4.40;;;1.00;;
70487;SDS011;57976;48.174;16.370;2023-08-30T01:51:36;3.10;;;1.10;;
70487;SDS011;57976;48.174;16.370;2023-08-30T01:53:41;4.70;;;1.30;;
70487;SDS011;57976;48.174;16.370;2023-08-30T01:55:49;3.60;;;1.30;;
70487;SDS011;57976;48.174;16.370;2023-08-30T01:57:54;4.60;;;1.40;;
70487;SDS011;57976;48.174;16.370;2023-08-30T01:59:59;4.90;;;1.40;;
70487;SDS011;57976;48.174;16.370;2023-08-30T02:02:17;3.60;;;1.20;;
70487;SDS011;57976;48.174;16.370;2023-08-30T02:04:22;3.90;;;1.20;;
70487;SDS011;57976;48.174;16.370;2023-08-30T02:06:31;3.80;;;1.50;;
70487;SDS011;57976;48.174;16.370;2023-08-30T02:08:40;3.20;;;1.20;;
70487;SDS011;57976;48.174;16.370;2023-08-30T02:10:53;4.50;;;1.40;;
70487;SDS011;57976;48.174;16.370;2023-08-30T02:13:04;4.00;;;1.30;;
70487;SDS011;57976;48.174;16.370;2023-08-30T02:15:11;3.40;;;1.10;;
70487;SDS011;57976;48.174;16.370;2023-08-30T02:17:19;4.00;;;1.40;;
70487;SDS011;57976;48.174;16.370;2023-08-30T02:19:24;3.90;;;1.20;;
70487;SDS011;57976;48.174;16.370;2023-08-30T02:21:29;4.20;;;1.40;;
70487;SDS011;57976;48.174;16.370;2023-08-30T02:23:34;3.90;;;1.20;;
70487;SDS011;57976;48.174;16.370;2023-08-30T02:25:39;4.50;;;1.40;;
70487;SDS011;57976;48.174;16.370;2023-08-30T02:27:44;3.70;;;1.50;;
70487;SDS011;57976;48.174;16.370;2023-08-30T02:29:49;4.20;;;1.20;;
70487;SDS011;57976;48.174;16.370;2023-08-30T02:31:54;3.60;;;1.40;;
70487;SDS011;57976;48.174;16.370;2023-08-30T02:33:59;4.00;;;1.50;;
70487;SDS011;57976;48.174;16.370;2023-08-30T02:36:05;4.10;;;1.40;;
70487;SDS011;57976;48.174;16.370;2023-08-30T02:38:10;4.00;;;1.40;;
70487;SDS011;57976;48.174;16.370;2023-08-30T02:40:16;4.00;;;1.70;;
70487;SDS011;57976;48.174;16.370;2023-08-30T02:42:21;3.80;;;1.40;;
70487;SDS011;57976;48.174;16.370;2023-08-30T02:44:29;4.30;;;1.40;;
70487;SDS011;57976;48.174;16.370;2023-08-30T02:46:34;3.70;;;1.30;;
70487;SDS011;57976;48.174;16.370;2023-08-30T02:48:41;4.10;;;1.70;;
70487;SDS011;57976;48.174;16.370;2023-08-30T02:50:46;5.80;;;1.60;;
70487;SDS011;57976;48.174;16.370;2023-08-30T02:52:51;3.80;;;1.40;;
70487;SDS011;57976;48.174;16.370;2023-08-30T02:54:56;4.30;;;1.60;;
70487;SDS011;57976;48.174;16.370;2023-08-30T02:57:01;3.20;;;1.40;;
70487;SDS011;57976;48.174;16.370;2023-08-30T02:59:06;4.40;;;1.80;;
70487;SDS011;57976;48.174;16.370;2023-08-30T03:01:11;3.60;;;1.40;;
70487;SDS011;57976;48.174;16.370;2023-08-30T03:03:16;3.50;;;1.40;;
70487;SDS011;57976;48.174;16.370;2023-08-30T03:05:21;3.60;;;1.30;;
70487;SDS011;57976;48.174;16.370;2023-08-30T03:07:27;4.80;;;1.90;;
70487;SDS011;57976;48.174;16.370;2023-08-30T03:09:33;3.40;;;1.30;;
70487;SDS011;57976;48.174;16.370;2023-08-30T03:11:38;4.80;;;1.50;;
70487;SDS011;57976;48.174;16.370;2023-08-30T03:13:43;3.60;;;1.30;;
70487;SDS011;57976;48.174;16.370;2023-08-30T03:15:48;4.20;;;1.50;;
70487;SDS011;57976;48.174;16.370;2023-08-30T03:17:53;4.00;;;1.50;;
70487;SDS011;57976;48.174;16.370;2023-08-30T03:19:59;3.90;;;1.50;;
70487;SDS011;57976;48.174;16.370;2023-08-30T03:22:05;3.90;;;1.20;;
70487;SDS011;57976;48.174;16.370;2023-08-30T03:24:10;4.90;;;1.30;;
70487;SDS011;57976;48.174;16.370;2023-08-30T03:26:15;4.10;;;1.40;;
70487;SDS011;57976;48.174;16.370;2023-08-30T03:28:21;3.70;;;1.30;;
70487;SDS011;57976;48.174;16.370;2023-08-30T03:30:26;4.10;;;1.30;;
70487;SDS011;57976;48.174;16.370;2023-08-30T03:32:33;3.80;;;1.30;;
70487;SDS011;57976;48.174;16.370;2023-08-30T03:34:38;3.30;;;1.10;;
70487;SDS011;57976;48.174;16.370;2023-08-30T03:36:43;3.10;;;1.20;;
70487;SDS011;57976;48.174;16.370;2023-08-30T03:38:50;3.20;;;1.00;;
70487;SDS011;57976;48.174;16.370;2023-08-30T03:40:55;3.50;;;1.10;;
70487;SDS011;57976;48.174;16.370;2023-08-30T03:43:00;3.70;;;1.20;;
70487;SDS011;57976;48.174;16.370;2023-08-30T03:45:06;3.40;;;1.00;;
70487;SDS011;57976;48.174;16.370;2023-08-30T03:47:12;3.10;;;1.00;;
70487;SDS011;57976;48.174;16.370;2023-08-30T03:49:17;3.70;;;1.00;;
70487;SDS011;57976;48.174;16.370;2023-08-30T03:51:22;3.60;;;1.20;;
70487;SDS011;57976;48.174;16.370;2023-08-30T03:53:27;2.90;;;1.00;;
70487;SDS011;57976;48.174;16.370;2023-08-30T03:55:32;3.10;;;0.90;;
70487;SDS011;57976;48.174;16.370;2023-08-30T03:57:40;3.00;;;1.00;;
70487;SDS011;57976;48.174;16.370;2023-08-30T03:59:45;3.40;;;1.10;;
70487;SDS011;57976;48.174;16.370;2023-08-30T04:01:50;3.00;;;1.10;;
70487;SDS011;57976;48.174;16.370;2023-08-30T04:03:56;3.00;;;1.00;;
70487;SDS011;57976;48.174;16.370;2023-08-30T04:06:02;3.20;;;1.10;;
70487;SDS011;57976;48.174;16.370;2023-08-30T04:08:07;4.00;;;1.10;;
70487;SDS011;57976;48.174;16.370;2023-08-30T04:10:13;4.20;;;1.30;;
70487;SDS011;57976;48.174;16.370;2023-08-30T04:12:18;4.70;;;1.60;;
70487;SDS011;57976;48.174;16.370;2023-08-30T04:14:24;4.10;;;1.50;;
70487;SDS011;57976;48.174;16.370;2023-08-30T04:16:29;3.50;;;1.30;;
70487;SDS011;57976;48.174;16.370;2023-08-30T04:18:34;4.80;;;1.60;;
70487;SDS011;57976;48.174;16.370;2023-08-30T04:20:42;4.50;;;1.60;;
70487;SDS011;57976;48.174;16.370;2023-08-30T04:22:51;5.30;;;1.80;;
70487;SDS011;57976;48.174;16.370;2023-08-30T04:24:56;4.80;;;1.50;;
70487;SDS011;57976;48.174;16.370;2023-08-30T04:27:01;4.20;;;1.50;;
70487;SDS011;57976;48.174;16.370;2023-08-30T04:29:08;4.40;;;1.50;;
70487;SDS011;57976;48.174;16.370;2023-08-30T04:31:13;4.10;;;1.50;;
70487;SDS011;57976;48.174;16.370;2023-08-30T04:33:21;4.30;;;1.70;;
70487;SDS011;57976;48.174;16.370;2023-08-30T04:35:26;4.60;;;1.80;;
70487;SDS011;57976;48.174;16.370;2023-08-30T04:37:32;5.50;;;1.60;;
70487;SDS011;57976;48.174;16.370;2023-08-30T04:39:37;4.70;;;1.60;;
70487;SDS011;57976;48.174;16.370;2023-08-30T04:41:45;4.10;;;1.60;;
70487;SDS011;57976;48.174;16.370;2023-08-30T04:43:50;4.90;;;1.80;;
70487;SDS011;57976;48.174;16.370;2023-08-30T04:45:56;5.30;;;1.90;;
70487;SDS011;57976;48.174;16.370;2023-08-30T04:48:02;4.80;;;1.90;;
70487;SDS011;57976;48.174;16.370;2023-08-30T04:50:09;4.80;;;1.90;;
70487;SDS011;57976;48.174;16.370;2023-08-30T04:52:14;4.60;;;1.80;;
70487;SDS011;57976;48.174;16.370;2023-08-30T04:54:19;4.80;;;1.90;;
70487;SDS011;57976;48.174;16.370;2023-08-30T04:56:27;4.70;;;2.00;;
70487;SDS011;57976;48.174;16.370;2023-08-30T04:58:32;4.80;;;2.00;;
70487;SDS011;57976;48.174;16.370;2023-08-30T05:00:38;4.40;;;1.90;;
70487;SDS011;57976;48.174;16.370;2023-08-30T05:02:43;4.20;;;1.70;;
70487;SDS011;57976;48.174;16.370;2023-08-30T05:04:48;4.60;;;1.90;;
70487;SDS011;57976;48.174;16.370;2023-08-30T05:06:52;5.10;;;1.80;;
70487;SDS011;57976;48.174;16.370;2023-08-30T05:08:57;5.20;;;1.90;;
70487;SDS011;57976;48.174;16.370;2023-08-30T05:11:02;5.20;;;2.00;;
70487;SDS011;57976;48.174;16.370;2023-08-30T05:13:09;5.20;;;2.00;;
70487;SDS011;57976;48.174;16.370;2023-08-30T05:15:14;4.70;;;1.80;;
70487;SDS011;57976;48.174;16.370;2023-08-30T05:17:19;5.70;;;1.80;;
70487;SDS011;57976;48.174;16.370;2023-08-30T05:19:25;4.60;;;1.90;;
70487;SDS011;57976;48.174;16.370;2023-08-30T05:21:30;4.40;;;1.90;;
70487;SDS011;57976;48.174;16.370;2023-08-30T05:23:35;5.20;;;2.20;;
70487;SDS011;57976;48.174;16.370;2023-08-30T05:25:43;4.60;;;1.90;;
70487;SDS011;57976;48.174;16.370;2023-08-30T05:27:49;5.00;;;2.10;;
70487;SDS011;57976;48.174;16.370;2023-08-30T05:29:54;5.30;;;2.10;;
70487;SDS011;57976;48.174;16.370;2023-08-30T05:32:00;5.30;;;2.30;;
70487;SDS011;57976;48.174;16.370;2023-08-30T05:34:23;5.90;;;2.50;;
70487;SDS011;57976;48.174;16.370;2023-08-30T05:36:49;6.40;;;2.30;;
70487;SDS011;57976;48.174;16.370;2023-08-30T05:39:03;5.30;;;2.10;;
70487;SDS011;57976;48.174;16.370;2023-08-30T05:41:10;5.10;;;2.10;;
70487;SDS011;57976;48.174;16.370;2023-08-30T05:43:16;5.10;;;2.30;;
70487;SDS011;57976;48.174;16.370;2023-08-30T05:45:21;6.20;;;2.20;;
70487;SDS011;57976;48.174;16.370;2023-08-30T05:47:26;5.10;;;2.10;;
70487;SDS011;57976;48.174;16.370;2023-08-30T05:49:31;5.70;;;2.90;;
70487;SDS011;57976;48.174;16.370;2023-08-30T05:51:36;5.60;;;2.40;;
70487;SDS011;57976;48.174;16.370;2023-08-30T05:53:42;5.90;;;2.30;;
70487;SDS011;57976;48.174;16.370;2023-08-30T05:55:47;5.20;;;2.40;;
70487;SDS011;57976;48.174;16.370;2023-08-30T05:57:53;5.10;;;2.30;;
70487;SDS011;57976;48.174;16.370;2023-08-30T05:59:58;4.80;;;2.10;;
70487;SDS011;57976;48.174;16.370;2023-08-30T06:02:03;5.40;;;2.10;;
70487;SDS011;57976;48.174;16.370;2023-08-30T06:04:09;6.10;;;2.60;;
70487;SDS011;57976;48.174;16.370;2023-08-30T06:06:15;6.00;;;2.20;;
70487;SDS011;57976;48.174;16.370;2023-08-30T06:08:20;4.90;;;2.30;;
70487;SDS011;57976;48.174;16.370;2023-08-30T06:10:25;5.70;;;2.30;;
70487;SDS011;57976;48.174;16.370;2023-08-30T06:12:30;5.50;;;2.20;;
70487;SDS011;57976;48.174;16.370;2023-08-30T06:14:35;4.60;;;2.00;;
70487;SDS011;57976;48.174;16.370;2023-08-30T06:16:40;6.60;;;2.20;;
70487;SDS011;57976;48.174;16.370;2023-08-30T06:18:46;5.10;;;2.30;;
70487;SDS011;57976;48.174;16.370;2023-08-30T06:20:51;6.20;;;2.30;;
70487;SDS011;57976;48.174;16.370;2023-08-30T06:22:57;4.80;;;1.80;;
70487;SDS011;57976;48.174;16.370;2023-08-30T06:25:06;6.00;;;2.10;;
70487;SDS011;57976;48.174;16.370;2023-08-30T06:27:11;4.90;;;2.10;;
70487;SDS011;57976;48.174;16.370;2023-08-30T06:29:16;4.90;;;2.40;;
70487;SDS011;57976;48.174;16.370;2023-08-30T06:31:21;5.10;;;2.50;;
70487;SDS011;57976;48.174;16.370;2023-08-30T06:33:28;5.60;;;2.30;;
70487;SDS011;57976;48.174;16.370;2023-08-30T06:35:35;5.50;;;2.10;;
70487;SDS011;57976;48.174;16.370;2023-08-30T06:37:41;5.00;;;2.10;;
70487;SDS011;57976;48.174;16.370;2023-08-30T06:39:46;4.40;;;2.20;;
70487;SDS011;57976;48.174;16.370;2023-08-30T06:41:51;4.40;;;1.90;;
70487;SDS011;57976;48.174;16.370;2023-08-30T06:43:56;4.60;;;2.10;;
70487;SDS011;57976;48.174;16.370;2023-08-30T06:46:01;5.50;;;2.10;;
70487;SDS011;57976;48.174;16.370;2023-08-30T06:48:07;4.80;;;1.90;;
70487;SDS011;57976;48.174;16.370;2023-08-30T06:50:13;5.30;;;2.20;;
70487;SDS011;57976;48.174;16.370;2023-08-30T06:52:18;4.70;;;1.80;;
70487;SDS011;57976;48.174;16.370;2023-08-30T06:54:23;4.60;;;2.00;;
70487;SDS011;57976;48.174;16.370;2023-08-30T06:56:28;4.70;;;1.90;;
70487;SDS011;57976;48.174;16.370;2023-08-30T06:58:33;5.20;;;2.00;;
70487;SDS011;57976;48.174;16.370;2023-08-30T07:00:38;5.20;;;2.20;;
70487;SDS011;57976;48.174;16.370;2023-08-30T07:02:44;5.00;;;2.10;;
70487;SDS011;57976;48.174;16.370;2023-08-30T07:04:49;6.20;;;1.90;;
70487;SDS011;57976;48.174;16.370;2023-08-30T07:06:54;4.90;;;2.00;;
70487;SDS011;57976;48.174;16.370;2023-08-30T07:08:59;4.60;;;1.80;;
70487;SDS011;57976;48.174;16.370;2023-08-30T07:11:05;4.60;;;1.90;;
70487;SDS011;57976;48.174;16.370;2023-08-30T07:13:30;5.30;;;1.90;;
70487;SDS011;57976;48.174;16.370;2023-08-30T07:15:35;4.40;;;1.80;;
70487;SDS011;57976;48.174;16.370;2023-08-30T07:17:44;4.80;;;2.00;;
70487;SDS011;57976;48.174;16.370;2023-08-30T07:19:56;4.50;;;1.80;;
70487;SDS011;57976;48.174;16.370;2023-08-30T07:22:02;4.20;;;1.90;;
70487;SDS011;57976;48.174;16.370;2023-08-30T07:24:08;4.60;;;1.90;;
70487;SDS011;57976;48.174;16.370;2023-08-30T07:26:14;4.30;;;1.80;;
70487;SDS011;57976;48.174;16.370;2023-08-30T07:28:19;4.60;;;1.80;;
70487;SDS011;57976;48.174;16.370;2023-08-30T07:30:24;5.10;;;2.10;;
70487;SDS011;57976;48.174;16.370;2023-08-30T07:32:29;4.60;;;1.90;;
70487;SDS011;57976;48.174;16.370;2023-08-30T07:34:36;5.90;;;1.90;;
70487;SDS011;57976;48.174;16.370;2023-08-30T07:36:41;3.90;;;1.70;;
70487;SDS011;57976;48.174;16.370;2023-08-30T07:38:50;5.00;;;1.80;;
70487;SDS011;57976;48.174;16.370;2023-08-30T07:40:55;4.10;;;1.50;;
70487;SDS011;57976;48.174;16.370;2023-08-30T07:43:00;3.80;;;1.50;;
70487;SDS011;57976;48.174;16.370;2023-08-30T07:45:06;4.20;;;1.50;;
70487;SDS011;57976;48.174;16.370;2023-08-30T07:47:12;4.20;;;1.50;;
70487;SDS011;57976;48.174;16.370;2023-08-30T07:49:17;4.40;;;1.40;;
70487;SDS011;57976;48.174;16.370;2023-08-30T07:51:22;3.20;;;1.20;;
70487;SDS011;57976;48.174;16.370;2023-08-30T07:53:27;3.60;;;1.40;;
70487;SDS011;57976;48.174;16.370;2023-08-30T07:55:32;3.80;;;1.50;;
70487;SDS011;57976;48.174;16.370;2023-08-30T07:57:37;4.10;;;1.30;;
70487;SDS011;57976;48.174;16.370;2023-08-30T07:59:42;3.50;;;1.30;;
70487;SDS011;57976;48.174;16.370;2023-08-30T08:01:48;4.40;;;1.50;;
70487;SDS011;57976;48.174;16.370;2023-08-30T08:03:53;4.70;;;1.30;;
70487;SDS011;57976;48.174;16.370;2023-08-30T08:06:09;4.00;;;1.30;;
70487;SDS011;57976;48.174;16.370;2023-08-30T08:08:14;3.90;;;1.30;;
70487;SDS011;57976;48.174;16.370;2023-08-30T08:10:20;4.60;;;1.40;;
70487;SDS011;57976;48.174;16.370;2023-08-30T08:12:27;2.80;;;1.10;;
70487;SDS011;57976;48.174;16.370;2023-08-30T08:14:33;3.40;;;1.30;;
70487;SDS011;57976;48.174;16.370;2023-08-30T08:16:38;3.50;;;1.30;;
70487;SDS011;57976;48.174;16.370;2023-08-30T08:18:43;3.60;;;1.20;;
70487;SDS011;57976;48.174;16.370;2023-08-30T08:20:48;3.00;;;1.10;;
70487;SDS011;57976;48.174;16.370;2023-08-30T08:22:54;3.20;;;1.30;;
70487;SDS011;57976;48.174;16.370;2023-08-30T08:24:59;3.80;;;1.10;;
70487;SDS011;57976;48.174;16.370;2023-08-30T08:27:05;3.20;;;1.10;;
70487;SDS011;57976;48.174;16.370;2023-08-30T08:29:10;4.00;;;1.40;;
70487;SDS011;57976;48.174;16.370;2023-08-30T08:31:16;4.00;;;1.50;;
70487;SDS011;57976;48.174;16.370;2023-08-30T08:33:22;2.90;;;1.10;;
70487;SDS011;57976;48.174;16.370;2023-08-30T08:35:27;3.20;;;1.30;;
70487;SDS011;57976;48.174;16.370;2023-08-30T08:37:34;3.80;;;1.30;;
70487;SDS011;57976;48.174;16.370;2023-08-30T08:39:40;3.80;;;1.30;;
70487;SDS011;57976;48.174;16.370;2023-08-30T08:41:45;2.80;;;1.20;;
70487;SDS011;57976;48.174;16.370;2023-08-30T08:43:50;4.30;;;1.50;;
70487;SDS011;57976;48.174;16.370;2023-08-30T08:45:55;3.90;;;1.20;;
70487;SDS011;57976;48.174;16.370;2023-08-30T08:48:02;3.30;;;1.20;;
70487;SDS011;57976;48.174;16.370;2023-08-30T08:50:10;3.80;;;1.40;;
70487;SDS011;57976;48.174;16.370;2023-08-30T08:52:15;4.60;;;1.50;;
70487;SDS011;57976;48.174;16.370;2023-08-30T08:54:33;3.50;;;1.30;;
70487;SDS011;57976;48.174;16.370;2023-08-30T08:56:39;3.70;;;1.20;;
70487;SDS011;57976;48.174;16.370;2023-08-30T08:58:44;3.40;;;1.40;;
70487;SDS011;57976;48.174;16.370;2023-08-30T09:00:50;3.20;;;1.30;;
70487;SDS011;57976;48.174;16.370;2023-08-30T09:02:55;3.50;;;1.30;;
70487;SDS011;57976;48.174;16.370;2023-08-30T09:05:01;3.10;;;1.20;;
70487;SDS011;57976;48.174;16.370;2023-08-30T09:07:07;3.70;;;1.10;;
70487;SDS011;57976;48.174;16.370;2023-08-30T09:09:14;2.70;;;1.00;;
70487;SDS011;57976;48.174;16.370;2023-08-30T09:11:19;3.10;;;1.10;;
70487;SDS011;57976;48.174;16.370;2023-08-30T09:13:35;3.20;;;0.90;;
70487;SDS011;57976;48.174;16.370;2023-08-30T09:15:40;2.50;;;0.90;;
70487;SDS011;57976;48.174;16.370;2023-08-30T09:17:45;3.90;;;1.10;;
70487;SDS011;57976;48.174;16.370;2023-08-30T09:19:50;3.60;;;1.20;;
70487;SDS011;57976;48.174;16.370;2023-08-30T09:21:56;2.80;;;0.90;;
70487;SDS011;57976;48.174;16.370;2023-08-30T09:24:02;2.50;;;0.80;;
70487;SDS011;57976;48.174;16.370;2023-08-30T09:26:08;2.10;;;0.80;;
70487;SDS011;57976;48.174;16.370;2023-08-30T09:28:13;2.40;;;0.80;;
70487;SDS011;57976;48.174;16.370;2023-08-30T09:30:22;2.20;;;0.80;;
70487;SDS011;57976;48.174;16.370;2023-08-30T09:32:27;2.20;;;0.70;;
70487;SDS011;57976;48.174;16.370;2023-08-30T09:34:32;3.50;;;0.90;;
70487;SDS011;57976;48.174;16.370;2023-08-30T09:36:38;2.30;;;0.80;;
70487;SDS011;57976;48.174;16.370;2023-08-30T09:38:49;2.20;;;0.80;;
70487;SDS011;57976;48.174;16.370;2023-08-30T09:41:01;2.50;;;0.90;;
70487;SDS011;57976;48.174;16.370;2023-08-30T09:43:07;2.80;;;0.80;;
70487;SDS011;57976;48.174;16.370;2023-08-30T09:45:18;2.80;;;0.80;;
70487;SDS011;57976;48.174;16.370;2023-08-30T09:47:25;2.50;;;0.80;;
70487;SDS011;57976;48.174;16.370;2023-08-30T09:49:33;2.40;;;1.10;;
70487;SDS011;57976;48.174;16.370;2023-08-30T09:51:45;3.30;;;1.00;;
70487;SDS011;57976;48.174;16.370;2023-08-30T09:53:51;2.70;;;0.80;;
70487;SDS011;57976;48.174;16.370;2023-08-30T09:56:09;2.30;;;0.70;;
70487;SDS011;57976;48.174;16.370;2023-08-30T09:58:16;2.20;;;0.90;;
70487;SDS011;57976;48.174;16.370;2023-08-30T10:00:24;3.60;;;1.10;;
70487;SDS011;57976;48.174;16.370;2023-08-30T10:02:30;3.30;;;1.20;;
70487;SDS011;57976;48.174;16.370;2023-08-30T10:04:37;3.20;;;1.10;;
70487;SDS011;57976;48.174;16.370;2023-08-30T10:06:43;2.60;;;0.80;;
70487;SDS011;57976;48.174;16.370;2023-08-30T10:08:50;2.10;;;0.80;;
70487;SDS011;57976;48.174;16.370;2023-08-30T10:10:56;3.20;;;0.90;;
70487;SDS011;57976;48.174;16.370;2023-08-30T10:13:03;3.50;;;0.90;;
70487;SDS011;57976;48.174;16.370;2023-08-30T10:15:13;2.90;;;1.00;;
70487;SDS011;57976;48.174;16.370;2023-08-30T10:17:18;3.50;;;1.10;;
70487;SDS011;57976;48.174;16.370;2023-08-30T10:19:27;4.20;;;1.50;;
70487;SDS011;57976;48.174;16.370;2023-08-30T10:21:33;3.50;;;1.40;;
70487;SDS011;57976;48.174;16.370;2023-08-30T10:23:39;3.20;;;1.30;;
70487;SDS011;57976;48.174;16.370;2023-08-30T10:25:45;3.30;;;1.20;;
70487;SDS011;57976;48.174;16.370;2023-08-30T10:27:54;3.70;;;1.20;;
70487;SDS011;57976;48.174;16.370;2023-08-30T10:30:01;3.80;;;1.40;;
70487;SDS011;57976;48.174;16.370;2023-08-30T10:32:09;4.80;;;1.60;;
70487;SDS011;57976;48.174;16.370;2023-08-30T10:34:14;3.50;;;1.40;;
70487;SDS011;57976;48.174;16.370;2023-08-30T10:36:23;3.10;;;1.20;;
70487;SDS011;57976;48.174;16.370;2023-08-30T10:38:29;4.50;;;1.50;;
70487;SDS011;57976;48.174;16.370;2023-08-30T10:40:35;3.70;;;1.40;;
70487;SDS011;57976;48.174;16.370;2023-08-30T10:42:59;4.60;;;1.60;;
70487;SDS011;57976;48.174;16.370;2023-08-30T10:45:06;3.50;;;1.30;;
70487;SDS011;57976;48.174;16.370;2023-08-30T10:47:20;4.00;;;1.60;;
70487;SDS011;57976;48.174;16.370;2023-08-30T10:49:27;3.90;;;1.40;;
70487;SDS011;57976;48.174;16.370;2023-08-30T10:51:38;3.60;;;1.20;;
70487;SDS011;57976;48.174;16.370;2023-08-30T10:53:44;4.80;;;1.60;;
70487;SDS011;57976;48.174;16.370;2023-08-30T10:56:10;4.20;;;1.70;;
70487;SDS011;57976;48.174;16.370;2023-08-30T10:58:18;3.50;;;1.50;;
70487;SDS011;57976;48.174;16.370;2023-08-30T11:00:23;4.20;;;1.60;;
70487;SDS011;57976;48.174;16.370;2023-08-30T11:02:31;4.20;;;1.60;;
70487;SDS011;57976;48.174;16.370;2023-08-30T11:04:40;3.70;;;1.70;;
70487;SDS011;57976;48.174;16.370;2023-08-30T11:06:46;4.30;;;1.70;;
70487;SDS011;57976;48.174;16.370;2023-08-30T11:08:52;4.60;;;1.70;;
70487;SDS011;57976;48.174;16.370;2023-08-30T11:11:01;3.90;;;1.40;;
70487;SDS011;57976;48.174;16.370;2023-08-30T11:13:08;4.50;;;1.80;;
70487;SDS011;57976;48.174;16.370;2023-08-30T11:15:13;4.80;;;1.70;;
70487;SDS011;57976;48.174;16.370;2023-08-30T11:17:18;4.80;;;1.40;;
70487;SDS011;57976;48.174;16.370;2023-08-30T11:19:28;4.80;;;1.60;;
70487;SDS011;57976;48.174;16.370;2023-08-30T11:21:35;5.40;;;2.40;;
70487;SDS011;57976;48.174;16.370;2023-08-30T11:23:41;5.60;;;2.50;;
70487;SDS011;57976;48.174;16.370;2023-08-30T11:25:50;4.60;;;1.80;;
70487;SDS011;57976;48.174;16.370;2023-08-30T11:28:02;3.70;;;1.50;;
70487;SDS011;57976;48.174;16.370;2023-08-30T11:30:09;4.70;;;1.70;;
70487;SDS011;57976;48.174;16.370;2023-08-30T11:32:16;4.90;;;1.70;;
70487;SDS011;57976;48.174;16.370;2023-08-30T11:34:22;4.30;;;1.70;;
70487;SDS011;57976;48.174;16.370;2023-08-30T11:36:28;5.00;;;2.00;;
70487;SDS011;57976;48.174;16.370;2023-08-30T11:38:34;6.00;;;1.90;;
70487;SDS011;57976;48.174;16.370;2023-08-30T11:40:40;4.10;;;1.70;;
70487;SDS011;57976;48.174;16.370;2023-08-30T11:42:51;4.00;;;1.60;;
70487;SDS011;57976;48.174;16.370;2023-08-30T11:44:57;4.30;;;1.60;;
70487;SDS011;57976;48.174;16.370;2023-08-30T11:47:03;3.50;;;1.50;;
70487;SDS011;57976;48.174;16.370;2023-08-30T11:49:09;4.00;;;1.60;;
70487;SDS011;57976;48.174;16.370;2023-08-30T11:51:15;3.60;;;1.40;;
70487;SDS011;57976;48.174;16.370;2023-08-30T11:53:21;5.30;;;1.60;;
70487;SDS011;57976;48.174;16.370;2023-08-30T11:55:27;4.10;;;1.70;;
70487;SDS011;57976;48.174;16.370;2023-08-30T11:57:34;4.10;;;1.60;;
70487;SDS011;57976;48.174;16.370;2023-08-30T11:59:40;4.00;;;1.60;;
70487;SDS011;57976;48.174;16.370;2023-08-30T12:01:46;4.20;;;1.60;;
70487;SDS011;57976;48.174;16.370;2023-08-30T12:03:52;3.70;;;1.40;;
70487;SDS011;57976;48.174;16.370;2023-08-30T12:05:57;4.60;;;1.50;;
70487;SDS011;57976;48.174;16.370;2023-08-30T12:08:03;4.60;;;1.90;;
70487;SDS011;57976;48.174;16.370;2023-08-30T12:10:09;3.80;;;1.70;;
70487;SDS011;57976;48.174;16.370;2023-08-30T12:12:14;3.20;;;1.40;;
70487;SDS011;57976;48.174;16.370;2023-08-30T12:14:20;3.30;;;1.30;;
70487;SDS011;57976;48.174;16.370;2023-08-30T12:16:36;4.00;;;1.50;;
70487;SDS011;57976;48.174;16.370;2023-08-30T12:18:46;3.80;;;1.60;;
70487;SDS011;57976;48.174;16.370;2023-08-30T12:20:55;3.20;;;1.30;;
70487;SDS011;57976;48.174;16.370;2023-08-30T12:23:01;3.50;;;1.40;;
70487;SDS011;57976;48.174;16.370;2023-08-30T12:25:16;4.30;;;1.50;;
70487;SDS011;57976;48.174;16.370;2023-08-30T12:27:22;3.80;;;1.40;;
70487;SDS011;57976;48.174;16.370;2023-08-30T12:29:27;5.00;;;1.60;;
70487;SDS011;57976;48.174;16.370;2023-08-30T12:31:33;3.20;;;1.30;;
70487;SDS011;57976;48.174;16.370;2023-08-30T12:33:38;2.90;;;1.30;;